Time;durP1;ratioP1;P1;durP2;ratioP2;P2;SDS_P1;SDS_P2;PMS_P1;PMS_P2;Temp;Humidity;BMP_temperature;BMP_pressure;BME280_temperature;BME280_humidity;BME280_pressure;Samples;Min_cycle;Max_cycle;Signal;HPM_P1;HPM_P2
2022/09/03 00:04:02;;;;;;;2.95;0.80;;;19.40;53.50;;;;;;5421375;23;20933;-36
2022/09/03 00:06:43;;;;;;;1.73;0.70;;;19.40;54.10;;;;;;4913839;28;20586;-34
2022/09/03 00:09:27;;;;;;;2.00;1.10;;;19.40;53.40;;;;;;4912089;29;20604;-36
2022/09/03 00:12:11;;;;;;;5.05;1.10;;;19.40;53.40;;;;;;4913936;29;20531;-35
2022/09/03 00:14:54;;;;;;;3.28;1.05;;;19.50;53.40;;;;;;4914240;29;20259;-39
2022/09/03 00:17:33;;;;;;;2.88;1.60;;;19.50;53.40;;;;;;4913826;29;20617;-43
2022/09/03 00:20:10;;;;;;;3.85;1.67;;;19.50;53.60;;;;;;4914467;29;20196;-40
2022/09/03 00:22:50;;;;;;;2.40;1.58;;;19.60;53.90;;;;;;4895432;29;20585;-35
2022/09/03 00:25:30;;;;;;;3.05;1.20;;;19.60;54.10;;;;;;4904261;29;20304;-38
2022/09/03 00:28:11;;;;;;;2.33;0.70;;;19.60;53.20;;;;;;4914339;29;20635;-48
2022/09/03 00:30:55;;;;;;;1.02;0.70;;;19.70;51.30;;;;;;4914160;29;20726;-35
2022/09/03 00:33:33;;;;;;;0.65;0.55;;;19.70;50.20;;;;;;4913196;29;20542;-37
2022/09/03 00:36:17;;;;;;;0.65;0.40;;;19.70;49.50;;;;;;4914214;29;20227;-46
2022/09/03 00:38:54;;;;;;;1.08;0.60;;;19.80;49.10;;;;;;4913548;29;20262;-35
2022/09/03 00:41:36;;;;;;;1.05;0.80;;;19.80;49.50;;;;;;4913725;29;20522;-40
2022/09/03 00:44:43;;;;;;;1.13;0.50;;;19.80;49.80;;;;;;4914108;29;20688;-37
2022/09/03 00:47:25;;;;;;;1.35;0.40;;;19.90;49.20;;;;;;4914217;29;20734;-36
2022/09/03 00:50:08;;;;;;;0.30;0.30;;;19.90;48.20;;;;;;4919429;29;20604;-35
2022/09/03 00:52:56;;;;;;;0.60;0.30;;;19.90;47.80;;;;;;4932468;29;20566;-35
2022/09/03 00:55:40;;;;;;;0.95;0.40;;;20.00;47.50;;;;;;4932549;29;20540;-38
2022/09/03 00:58:39;;;;;;;0.20;0.20;;;20.00;47.40;;;;;;4932591;29;20641;-35
2022/09/03 01:01:16;;;;;;;0.30;0.30;;;20.00;47.10;;;;;;4933246;23;20646;-34
2022/09/03 01:03:58;;;;;;;0.52;0.28;;;20.10;46.80;;;;;;4896116;29;20201;-37
2022/09/03 01:06:39;;;;;;;1.00;0.47;;;20.20;46.90;;;;;;4881492;29;20404;-35
2022/09/03 01:09:23;;;;;;;0.75;0.38;;;20.20;47.30;;;;;;4876695;29;20205;-33
2022/09/03 01:12:00;;;;;;;0.35;0.30;;;20.20;47.60;;;;;;4877915;29;20291;-33
2022/09/03 01:14:41;;;;;;;0.30;0.30;;;20.30;47.90;;;;;;4876417;29;20224;-33
2022/09/03 01:17:22;;;;;;;0.35;0.28;;;20.30;48.20;;;;;;4876780;29;20807;-36
2022/09/03 01:20:07;;;;;;;0.90;0.30;;;20.30;48.20;;;;;;4876239;29;20261;-35
2022/09/03 01:23:10;;;;;;;0.73;0.40;;;20.30;48.20;;;;;;4876389;29;20205;-33
2022/09/03 01:25:56;;;;;;;0.80;0.30;;;20.30;48.30;;;;;;4877225;29;20237;-34
2022/09/03 01:28:41;;;;;;;0.77;0.30;;;20.30;48.30;;;;;;4877251;29;20313;-33
2022/09/03 01:31:20;;;;;;;0.52;0.20;;;20.30;48.50;;;;;;4876042;29;20206;-33
2022/09/03 01:34:00;;;;;;;0.52;0.43;;;20.40;48.70;;;;;;4876128;29;20201;-35
2022/09/03 01:36:35;;;;;;;0.47;0.38;;;20.40;48.60;;;;;;4875906;29;20221;-34
2022/09/03 01:39:07;;;;;;;2.15;0.43;;;20.40;48.60;;;;;;4875682;29;20215;-34
2022/09/03 01:44:44;;;;;;;0.40;0.30;;;20.30;49.20;;;;;;4875643;29;20216;-33
2022/09/03 01:47:23;;;;;;;0.95;0.40;;;20.40;48.80;;;;;;4874626;29;20221;-34
2022/09/03 01:50:04;;;;;;;0.57;0.50;;;20.40;48.90;;;;;;4874903;29;20201;-34
2022/09/03 01:52:45;;;;;;;0.30;0.30;;;20.40;48.80;;;;;;4874847;29;20201;-33
2022/09/03 01:55:31;;;;;;;0.60;0.50;;;20.40;48.80;;;;;;4875020;29;20245;-34
2022/09/03 01:58:08;;;;;;;2.10;0.60;;;20.40;48.70;;;;;;4874469;29;20212;-34
2022/09/03 02:00:45;;;;;;;0.52;0.52;;;20.40;48.70;;;;;;4874714;29;20666;-34
2022/09/03 02:03:16;;;;;;;0.50;0.50;;;20.40;48.60;;;;;;4875456;29;20208;-33
2022/09/03 02:05:47;;;;;;;0.68;0.40;;;20.50;48.70;;;;;;4875092;29;20227;-34
2022/09/03 02:08:18;;;;;;;0.50;0.40;;;20.50;48.70;;;;;;4875041;29;20256;-35
2022/09/03 02:10:51;;;;;;;0.65;0.40;;;20.50;49.40;;;;;;4874688;29;20217;-36
2022/09/03 02:13:26;;;;;;;0.80;0.40;;;20.50;48.90;;;;;;4874880;29;20202;-34
2022/09/03 02:16:02;;;;;;;0.50;0.50;;;20.50;49.00;;;;;;4874593;29;20272;-34
2022/09/03 02:18:35;;;;;;;0.73;0.50;;;20.50;49.00;;;;;;4874882;29;20213;-35
2022/09/03 02:21:06;;;;;;;1.80;0.50;;;20.50;48.90;;;;;;4874626;29;20559;-34
2022/09/03 02:23:37;;;;;;;0.45;0.40;;;20.60;48.90;;;;;;4874561;29;20535;-34
2022/09/03 02:26:11;;;;;;;0.20;0.20;;;20.60;48.80;;;;;;4874015;29;20221;-34
2022/09/03 02:28:41;;;;;;;1.40;0.40;;;20.60;48.80;;;;;;4874443;29;20257;-34
2022/09/03 02:31:14;;;;;;;0.70;0.43;;;20.70;48.90;;;;;;4874649;29;20677;-33
2022/09/03 02:33:48;;;;;;;0.80;0.60;;;20.70;48.90;;;;;;4875212;29;20212;-34
2022/09/03 02:36:22;;;;;;;0.57;0.55;;;20.70;49.00;;;;;;4874818;29;20222;-33
2022/09/03 02:38:53;;;;;;;0.63;0.50;;;20.70;49.00;;;;;;4874820;29;20205;-34
2022/09/03 02:41:26;;;;;;;2.13;0.60;;;20.70;49.00;;;;;;4874706;29;20202;-34
2022/09/03 02:44:03;;;;;;;0.60;0.50;;;20.80;49.10;;;;;;4875017;29;20194;-34
2022/09/03 02:46:39;;;;;;;0.60;0.55;;;20.80;49.10;;;;;;4877305;29;20201;-34
2022/09/03 02:49:11;;;;;;;0.60;0.60;;;20.80;49.10;;;;;;4874841;29;20236;-34
2022/09/03 02:51:43;;;;;;;0.60;0.50;;;20.80;49.00;;;;;;4875039;29;20442;-34
2022/09/03 02:54:14;;;;;;;0.70;0.70;;;20.90;49.00;;;;;;4874974;29;20201;-35
2022/09/03 02:56:47;;;;;;;1.00;0.65;;;20.90;49.00;;;;;;4875009;29;20742;-34
2022/09/03 02:59:18;;;;;;;0.50;0.50;;;20.90;49.00;;;;;;4875147;29;20241;-34
2022/09/03 03:01:50;;;;;;;1.00;0.68;;;20.90;49.00;;;;;;4875738;29;20214;-34
2022/09/03 03:04:21;;;;;;;0.50;0.50;;;21.00;49.00;;;;;;4875131;29;20213;-34
2022/09/03 03:06:52;;;;;;;0.77;0.40;;;21.00;49.00;;;;;;4875309;29;20666;-34
2022/09/03 03:09:22;;;;;;;0.55;0.40;;;21.00;49.10;;;;;;4875047;29;20245;-34
2022/09/03 03:11:54;;;;;;;0.52;0.50;;;21.00;49.10;;;;;;4878240;29;20206;-34
2022/09/03 03:14:25;;;;;;;0.60;0.50;;;21.10;49.10;;;;;;4878437;29;20231;-34
2022/09/03 03:16:57;;;;;;;1.23;0.60;;;21.10;49.10;;;;;;4878173;29;20212;-34
2022/09/03 03:19:28;;;;;;;0.43;0.43;;;21.10;49.10;;;;;;4877968;29;20241;-34
2022/09/03 03:21:58;;;;;;;0.47;0.40;;;21.10;49.10;;;;;;4877867;29;20197;-35
2022/09/03 03:24:29;;;;;;;0.65;0.50;;;21.20;49.10;;;;;;4878129;29;20225;-34
2022/09/03 03:27:00;;;;;;;1.27;0.60;;;21.20;49.10;;;;;;4877973;29;20201;-34
2022/09/03 03:29:31;;;;;;;0.50;0.50;;;21.20;49.10;;;;;;4878201;29;20229;-34
2022/09/03 03:32:03;;;;;;;1.58;0.50;;;21.20;49.20;;;;;;4877866;29;20198;-34
2022/09/03 03:34:34;;;;;;;0.52;0.52;;;21.20;49.10;;;;;;4877736;29;20257;-34
2022/09/03 03:37:05;;;;;;;0.40;0.40;;;21.20;49.10;;;;;;4877622;29;20209;-34
2022/09/03 03:39:35;;;;;;;0.52;0.43;;;21.30;49.30;;;;;;4878282;29;20202;-34
2022/09/03 03:42:06;;;;;;;0.75;0.30;;;21.30;49.30;;;;;;4877831;29;20206;-34
2022/09/03 03:44:37;;;;;;;1.10;0.40;;;21.30;49.30;;;;;;4877931;29;20226;-34
2022/09/03 03:47:09;;;;;;;0.68;0.57;;;21.30;49.30;;;;;;4877814;29;20442;-35
2022/09/03 03:49:40;;;;;;;1.27;0.40;;;21.30;49.30;;;;;;4877859;29;20587;-34
2022/09/03 03:52:11;;;;;;;0.40;0.40;;;21.30;49.30;;;;;;4877914;29;20564;-34
2022/09/03 03:54:41;;;;;;;0.60;0.60;;;21.40;49.30;;;;;;4877631;29;20523;-35
2022/09/03 03:57:12;;;;;;;0.73;0.60;;;21.40;49.20;;;;;;4877397;29;20198;-34
2022/09/03 03:59:43;;;;;;;0.80;0.60;;;21.40;49.20;;;;;;4877513;29;20210;-35
2022/09/03 04:02:15;;;;;;;0.50;0.45;;;21.40;49.10;;;;;;4877192;29;20205;-34
2022/09/03 04:04:46;;;;;;;0.40;0.40;;;21.50;49.20;;;;;;4858957;29;20233;-34
2022/09/03 04:07:17;;;;;;;0.70;0.52;;;21.50;49.10;;;;;;4858568;29;20217;-34
2022/09/03 04:09:48;;;;;;;0.98;0.40;;;21.50;49.10;;;;;;4877096;29;20233;-34
2022/09/03 04:12:18;;;;;;;0.50;0.50;;;21.50;49.00;;;;;;4877338;29;20205;-35
2022/09/03 04:14:49;;;;;;;1.05;0.52;;;21.50;49.00;;;;;;4876983;29;20222;-36
2022/09/03 04:17:22;;;;;;;0.50;0.40;;;21.60;49.00;;;;;;4876792;29;20225;-34
2022/09/03 04:19:52;;;;;;;0.50;0.50;;;21.60;48.90;;;;;;4876853;29;20208;-35
2022/09/03 04:22:23;;;;;;;0.35;0.30;;;21.60;49.00;;;;;;4876554;29;20206;-34
2022/09/03 04:24:53;;;;;;;0.98;0.50;;;21.60;48.90;;;;;;4877518;29;20247;-35
2022/09/03 04:27:24;;;;;;;0.85;0.60;;;21.60;48.90;;;;;;4877092;29;20690;-34
2022/09/03 04:29:55;;;;;;;0.43;0.43;;;21.60;48.80;;;;;;4876861;29;20229;-34
2022/09/03 04:35:15;;;;;;;0.73;0.40;;;21.70;48.80;;;;;;4876761;29;20292;-34
2022/09/03 04:37:46;;;;;;;0.20;0.20;;;21.70;48.80;;;;;;4876144;29;20201;-34
2022/09/03 04:40:17;;;;;;;0.30;0.30;;;21.70;48.70;;;;;;4876521;29;20202;-34
2022/09/03 04:42:47;;;;;;;0.20;0.20;;;21.70;48.70;;;;;;4892013;29;20701;-34
2022/09/03 04:45:19;;;;;;;0.40;0.40;;;21.70;48.40;;;;;;4895373;29;20217;-35
2022/09/03 04:48:01;;;;;;;1.17;0.38;;;21.70;48.40;;;;;;4895332;29;20201;-38
2022/09/03 04:50:34;;;;;;;0.70;0.32;;;21.70;48.20;;;;;;4878852;29;20669;-34
2022/09/03 04:53:06;;;;;;;0.30;0.30;;;21.70;48.80;;;;;;4875846;29;20194;-34
2022/09/03 04:55:37;;;;;;;1.73;0.50;;;21.70;48.30;;;;;;4875422;29;20770;-34
2022/09/03 04:58:08;;;;;;;0.65;0.40;;;21.70;48.30;;;;;;4876430;29;20206;-34
2022/09/03 05:00:39;;;;;;;0.85;0.60;;;21.70;48.20;;;;;;4877224;29;20209;-34
2022/09/03 05:03:12;;;;;;;0.40;0.40;;;21.70;48.30;;;;;;4894831;29;20201;-34
2022/09/03 05:05:42;;;;;;;0.40;0.40;;;21.70;48.20;;;;;;4895347;29;20228;-34
2022/09/03 05:08:13;;;;;;;1.50;0.40;;;21.70;48.20;;;;;;4884675;29;20808;-34
2022/09/03 05:10:44;;;;;;;0.45;0.40;;;21.70;48.20;;;;;;4876663;29;20213;-34
2022/09/03 05:13:14;;;;;;;0.30;0.30;;;21.70;48.20;;;;;;4876495;29;20209;-34
2022/09/03 05:15:45;;;;;;;0.38;0.38;;;21.70;48.20;;;;;;4876994;29;20255;-34
2022/09/03 05:18:18;;;;;;;0.30;0.30;;;21.60;48.20;;;;;;4876945;29;20607;-34
2022/09/03 05:20:48;;;;;;;0.38;0.30;;;21.70;48.20;;;;;;4876741;29;20202;-34
2022/09/03 05:23:21;;;;;;;0.70;0.40;;;21.60;48.20;;;;;;4876218;29;20567;-34
2022/09/03 05:25:59;;;;;;;0.38;0.38;;;21.60;48.10;;;;;;4876912;29;20749;-34
2022/09/03 05:28:30;;;;;;;0.80;0.30;;;21.60;48.30;;;;;;4876733;29;20257;-34
2022/09/03 05:31:04;;;;;;;0.52;0.30;;;21.60;48.30;;;;;;4876507;29;20591;-34
2022/09/03 05:33:39;;;;;;;0.30;0.20;;;21.60;48.20;;;;;;4895026;29;20207;-34
2022/09/03 05:36:12;;;;;;;0.30;0.20;;;21.60;48.20;;;;;;4895029;29;20227;-34
2022/09/03 05:38:43;;;;;;;0.30;0.30;;;21.60;48.30;;;;;;4876500;29;20206;-37
2022/09/03 05:41:15;;;;;;;0.22;0.22;;;21.60;48.20;;;;;;4876013;29;20205;-37
2022/09/03 05:43:46;;;;;;;0.35;0.30;;;21.60;48.20;;;;;;4876244;29;20190;-35
2022/09/03 05:46:18;;;;;;;1.70;0.40;;;21.60;48.20;;;;;;4875855;29;20232;-38
2022/09/03 05:48:50;;;;;;;0.55;0.32;;;21.50;48.10;;;;;;4884232;29;20221;-34
2022/09/03 05:51:21;;;;;;;0.63;0.40;;;21.50;48.10;;;;;;4876174;29;20206;-34
2022/09/03 05:53:52;;;;;;;0.35;0.30;;;21.50;48.00;;;;;;4877042;29;20213;-34
2022/09/03 05:56:23;;;;;;;0.73;0.43;;;21.50;48.00;;;;;;4876423;29;20248;-34
2022/09/03 05:58:55;;;;;;;0.82;0.60;;;21.50;48.10;;;;;;4876541;29;20213;-34
2022/09/03 06:01:27;;;;;;;0.55;0.55;;;21.40;48.10;;;;;;4876629;29;20559;-34
2022/09/03 06:04:01;;;;;;;0.50;0.50;;;21.40;48.10;;;;;;4876382;29;20202;-34
2022/09/03 06:06:34;;;;;;;0.50;0.50;;;21.40;48.20;;;;;;4875729;29;20641;-34
2022/09/03 06:09:06;;;;;;;0.60;0.60;;;21.40;48.30;;;;;;4875671;29;20237;-34
2022/09/03 06:11:38;;;;;;;0.73;0.40;;;21.40;48.20;;;;;;4876572;29;20198;-34
2022/09/03 06:14:10;;;;;;;0.82;0.40;;;21.40;48.10;;;;;;4876122;29;20664;-34
2022/09/03 06:16:42;;;;;;;0.50;0.50;;;21.30;48.10;;;;;;4876710;29;20201;-34
2022/09/03 06:19:14;;;;;;;0.93;0.70;;;21.30;48.20;;;;;;4875376;29;20205;-34
2022/09/03 06:21:46;;;;;;;0.50;0.50;;;21.30;48.30;;;;;;4875853;29;20684;-34
2022/09/03 06:24:18;;;;;;;0.88;0.70;;;21.20;48.30;;;;;;4876219;29;20209;-34
2022/09/03 06:26:49;;;;;;;0.60;0.50;;;21.20;48.30;;;;;;4876679;29;20658;-34
2022/09/03 06:29:20;;;;;;;0.60;0.60;;;21.20;48.30;;;;;;4876248;29;20229;-34
2022/09/03 06:31:51;;;;;;;0.93;0.55;;;21.10;48.20;;;;;;4876714;29;20201;-34
2022/09/03 06:34:25;;;;;;;0.65;0.60;;;21.10;48.20;;;;;;4875851;29;20201;-34
2022/09/03 06:36:56;;;;;;;0.73;0.50;;;21.10;48.10;;;;;;4875832;29;20654;-34
2022/09/03 06:39:27;;;;;;;0.60;0.50;;;21.10;48.10;;;;;;4876296;29;20220;-34
2022/09/03 06:41:58;;;;;;;1.00;0.47;;;21.00;48.10;;;;;;4876129;29;20661;-34
2022/09/03 06:44:28;;;;;;;0.77;0.73;;;21.00;48.10;;;;;;4875710;29;20201;-34
2022/09/03 06:47:00;;;;;;;1.02;0.63;;;21.00;48.20;;;;;;4879366;29;20201;-34
2022/09/03 06:49:32;;;;;;;0.90;0.50;;;21.00;48.30;;;;;;4879101;29;20236;-34
2022/09/03 06:52:03;;;;;;;0.75;0.68;;;20.90;48.30;;;;;;4878918;29;20205;-34
2022/09/03 06:54:34;;;;;;;1.70;0.60;;;20.90;48.30;;;;;;4879983;29;20228;-34
2022/09/03 06:57:04;;;;;;;1.33;0.50;;;20.80;48.20;;;;;;4879699;29;20216;-34
2022/09/03 06:59:35;;;;;;;0.85;0.73;;;20.80;48.30;;;;;;4881077;29;20193;-35
2022/09/03 07:02:06;;;;;;;0.55;0.55;;;20.80;48.30;;;;;;4881185;29;20224;-37
2022/09/03 07:04:38;;;;;;;1.00;0.55;;;20.70;48.20;;;;;;4897391;29;20221;-36
2022/09/03 07:07:12;;;;;;;0.88;0.60;;;20.70;48.30;;;;;;4897670;29;20677;-34
2022/09/03 07:09:42;;;;;;;0.80;0.70;;;20.70;48.30;;;;;;4880454;29;20628;-34
2022/09/03 07:12:15;;;;;;;1.15;0.68;;;20.70;48.40;;;;;;4879276;29;20190;-34
2022/09/03 07:14:48;;;;;;;0.65;0.60;;;20.70;48.30;;;;;;4878515;29;20253;-33
2022/09/03 07:17:18;;;;;;;0.40;0.40;;;20.60;48.30;;;;;;4879373;29;20563;-34
2022/09/03 07:19:51;;;;;;;0.55;0.43;;;20.60;48.40;;;;;;4879126;29;20205;-33
2022/09/03 07:22:21;;;;;;;0.60;0.60;;;20.60;48.40;;;;;;4879604;29;20205;-34
2022/09/03 07:24:52;;;;;;;0.93;0.52;;;20.50;48.50;;;;;;4879270;29;20230;-36
2022/09/03 07:27:23;;;;;;;1.05;0.45;;;20.50;48.50;;;;;;4878294;29;20202;-34
2022/09/03 07:29:53;;;;;;;0.63;0.60;;;20.50;48.60;;;;;;4878863;29;20233;-34
2022/09/03 07:32:24;;;;;;;0.63;0.60;;;20.40;48.60;;;;;;4878959;29;20201;-33
2022/09/03 07:34:57;;;;;;;0.55;0.55;;;20.40;48.60;;;;;;4877815;29;20228;-33
2022/09/03 07:37:27;;;;;;;0.98;0.80;;;20.40;48.50;;;;;;4878180;29;20194;-34
2022/09/03 07:39:58;;;;;;;0.50;0.47;;;20.40;48.50;;;;;;4878212;29;20205;-33
2022/09/03 07:42:29;;;;;;;1.10;0.68;;;20.30;48.50;;;;;;4876751;29;20190;-33
2022/09/03 07:45:00;;;;;;;0.65;0.63;;;20.30;49.10;;;;;;4887044;29;20228;-34
2022/09/03 07:47:33;;;;;;;1.75;0.70;;;20.30;48.60;;;;;;4897348;29;20201;-34
2022/09/03 07:50:06;;;;;;;0.70;0.60;;;20.20;48.60;;;;;;4896278;29;20228;-33
2022/09/03 07:52:36;;;;;;;0.98;0.70;;;20.20;48.60;;;;;;4895777;29;20247;-33
2022/09/03 07:55:08;;;;;;;0.65;0.65;;;20.20;48.60;;;;;;4895861;29;20225;-33
2022/09/03 07:57:39;;;;;;;0.70;0.60;;;20.10;48.60;;;;;;4894181;29;20711;-33
2022/09/03 08:00:11;;;;;;;1.42;0.70;;;20.10;48.70;;;;;;4890674;29;20206;-34
2022/09/03 08:02:42;;;;;;;0.50;0.50;;;20.10;48.70;;;;;;4876999;29;20297;-34
2022/09/03 08:05:17;;;;;;;0.60;0.60;;;20.00;48.70;;;;;;4876365;29;20265;-33
2022/09/03 08:07:49;;;;;;;0.50;0.50;;;20.10;48.70;;;;;;4877213;29;20320;-33
2022/09/03 08:10:20;;;;;;;0.70;0.70;;;20.00;48.70;;;;;;4898281;23;20300;-37
2022/09/03 08:12:50;;;;;;;0.60;0.60;;;20.00;48.70;;;;;;4895874;29;20215;-37
2022/09/03 08:15:21;;;;;;;0.73;0.52;;;20.00;48.70;;;;;;4895483;29;20219;-38
2022/09/03 08:17:52;;;;;;;0.60;0.47;;;20.00;48.70;;;;;;4895418;29;20688;-35
2022/09/03 08:20:24;;;;;;;0.50;0.50;;;19.90;48.60;;;;;;4895062;29;20201;-34
2022/09/03 08:23:01;;;;;;;1.25;0.50;;;19.90;48.70;;;;;;4894644;29;20197;-38
2022/09/03 08:25:32;;;;;;;1.35;0.43;;;19.90;48.70;;;;;;4895756;29;20268;-38
2022/09/03 08:28:03;;;;;;;0.43;0.43;;;19.80;48.70;;;;;;4895956;29;20201;-37
2022/09/03 08:30:33;;;;;;;0.88;0.60;;;19.80;49.30;;;;;;4895391;29;20225;-38
2022/09/03 08:33:06;;;;;;;0.65;0.52;;;19.80;49.40;;;;;;4895802;29;20208;-37
2022/09/03 08:35:38;;;;;;;0.57;0.57;;;19.70;48.70;;;;;;4895983;29;20284;-39
2022/09/03 08:38:09;;;;;;;0.73;0.50;;;19.70;48.80;;;;;;4895924;29;20227;-37
2022/09/03 08:40:42;;;;;;;0.73;0.60;;;19.70;48.80;;;;;;4895534;29;20212;-35
2022/09/03 08:43:19;;;;;;;1.02;0.70;;;19.70;48.80;;;;;;4895483;29;20201;-38
2022/09/03 08:45:50;;;;;;;0.68;0.60;;;19.70;48.80;;;;;;4895158;29;20244;-36
2022/09/03 08:48:24;;;;;;;0.60;0.50;;;19.70;48.80;;;;;;4894140;29;20197;-42
2022/09/03 08:51:01;;;;;;;0.60;0.60;;;19.60;48.80;;;;;;4876433;29;20232;-36
2022/09/03 08:53:37;;;;;;;0.73;0.57;;;19.60;48.90;;;;;;4876091;29;20717;-41
2022/09/03 08:56:12;;;;;;;0.70;0.70;;;19.50;48.90;;;;;;4876642;29;20217;-36
2022/09/03 08:58:44;;;;;;;0.70;0.70;;;19.50;48.90;;;;;;4876305;29;20213;-36
2022/09/03 09:01:24;;;;;;;1.15;0.75;;;19.50;49.00;;;;;;4885775;29;20720;-41
2022/09/03 09:04:06;;;;;;;1.45;0.70;;;19.50;49.00;;;;;;4894747;29;20196;-34
2022/09/03 09:06:47;;;;;;;1.70;1.10;;;19.40;49.10;;;;;;4897098;29;20220;-35
2022/09/03 09:09:27;;;;;;;0.85;0.70;;;19.40;49.10;;;;;;4908019;23;20205;-35
2022/09/03 09:12:09;;;;;;;1.75;0.90;;;19.40;49.20;;;;;;4913713;29;20236;-38
2022/09/03 09:14:46;;;;;;;1.25;0.88;;;19.30;49.20;;;;;;4909555;29;20232;-32
2022/09/03 09:17:38;;;;;;;2.70;0.93;;;19.30;49.20;;;;;;4894492;29;20208;-33
2022/09/03 09:20:17;;;;;;;1.90;0.90;;;19.30;49.20;;;;;;4894226;29;20427;-33
2022/09/03 09:22:52;;;;;;;1.52;1.00;;;19.30;49.30;;;;;;4894883;29;20736;-33
2022/09/03 09:25:25;;;;;;;1.70;1.00;;;19.30;49.40;;;;;;4894674;29;20220;-33
2022/09/03 09:28:01;;;;;;;1.92;0.80;;;19.20;49.40;;;;;;4887295;29;20564;-33
2022/09/03 09:30:33;;;;;;;2.15;1.17;;;19.20;49.60;;;;;;4891163;29;20239;-34
2022/09/03 09:33:04;;;;;;;1.35;1.00;;;19.10;49.60;;;;;;4894581;29;20204;-35
2022/09/03 09:35:34;;;;;;;1.80;1.15;;;19.10;49.60;;;;;;4894370;29;20225;-33
2022/09/03 09:38:07;;;;;;;3.13;1.15;;;19.10;49.70;;;;;;4893997;29;20239;-33
2022/09/03 09:40:40;;;;;;;2.35;1.00;;;19.10;49.70;;;;;;4894073;29;20216;-33
2022/09/03 09:43:14;;;;;;;2.22;1.15;;;19.10;49.70;;;;;;4893644;29;20293;-35
2022/09/03 09:45:47;;;;;;;2.45;1.35;;;19.10;49.70;;;;;;4893747;29;20272;-34
2022/09/03 09:48:25;;;;;;;2.78;1.30;;;19.10;49.70;;;;;;4894337;29;20205;-33
2022/09/03 09:51:07;;;;;;;1.92;1.30;;;19.00;49.80;;;;;;4893953;29;20220;-33
2022/09/03 09:53:40;;;;;;;4.18;1.42;;;19.00;49.80;;;;;;4894448;29;20200;-35
2022/09/03 09:56:21;;;;;;;2.72;1.23;;;19.00;49.90;;;;;;4894311;29;20220;-33
2022/09/03 09:58:53;;;;;;;1.98;1.25;;;19.00;49.90;;;;;;4893834;29;20592;-38
2022/09/03 10:01:29;;;;;;;2.90;1.10;;;18.90;49.90;;;;;;4891804;29;20201;-33
2022/09/03 10:04:01;;;;;;;1.95;1.10;;;18.90;49.90;;;;;;4893944;29;20201;-33
2022/09/03 10:09:23;;;;;;;3.00;1.38;;;18.90;50.00;;;;;;4889856;29;20291;-34
2022/09/03 10:12:01;;;;;;;1.60;1.00;;;18.90;50.00;;;;;;4889836;29;20240;-34
2022/09/03 10:14:38;;;;;;;1.90;1.00;;;18.90;50.10;;;;;;4894495;29;20215;-40
2022/09/03 10:17:17;;;;;;;2.25;1.00;;;18.90;50.10;;;;;;4894636;29;20284;-35
2022/09/03 10:22:45;;;;;;;2.72;1.10;;;18.90;50.20;;;;;;4888431;29;20921;-34
2022/09/03 10:25:19;;;;;;;2.45;1.27;;;18.80;50.20;;;;;;4893494;29;20248;-34
2022/09/03 10:27:50;;;;;;;3.33;1.00;;;18.80;50.20;;;;;;4894852;29;20569;-40
2022/09/03 10:30:21;;;;;;;2.85;1.60;;;18.70;50.20;;;;;;4894121;29;20232;-34
2022/09/03 10:33:00;;;;;;;2.75;1.30;;;18.70;50.90;;;;;;4893940;29;20205;-33
2022/09/03 10:35:33;;;;;;;1.90;0.90;;;18.70;50.40;;;;;;4893512;29;20310;-33
2022/09/03 10:38:12;;;;;;;2.08;1.13;;;18.70;50.40;;;;;;4894484;29;20238;-35
2022/09/03 10:40:52;;;;;;;2.08;0.95;;;18.70;50.40;;;;;;4894007;29;20208;-33
2022/09/03 10:43:41;;;;;;;1.60;1.05;;;18.70;50.40;;;;;;4894991;29;20204;-34
2022/09/03 10:46:18;;;;;;;2.97;0.93;;;18.60;50.40;;;;;;4894763;29;20225;-39
2022/09/03 10:49:01;;;;;;;2.15;1.00;;;18.70;50.40;;;;;;4894273;29;20720;-34
2022/09/03 10:51:38;;;;;;;2.15;1.08;;;18.70;50.40;;;;;;4893582;29;20280;-34
2022/09/03 10:54:23;;;;;;;3.63;1.13;;;18.60;50.40;;;;;;4893841;29;20200;-34
2022/09/03 10:57:03;;;;;;;2.88;1.23;;;18.60;50.40;;;;;;4893836;29;20204;-33
2022/09/03 10:59:43;;;;;;;2.85;1.30;;;18.60;50.50;;;;;;4894032;29;20567;-34
2022/09/03 11:02:30;;;;;;;2.60;1.40;;;18.60;50.50;;;;;;4894484;29;20228;-35
2022/09/03 11:05:07;;;;;;;2.25;1.30;;;18.50;50.50;;;;;;4894158;29;20224;-33
2022/09/03 11:07:41;;;;;;;3.60;1.10;;;18.50;50.50;;;;;;4895022;29;20205;-33
2022/09/03 11:10:17;;;;;;;1.90;1.10;;;18.50;50.50;;;;;;4896430;29;20260;-38
2022/09/03 11:12:56;;;;;;;2.47;1.08;;;18.50;50.60;;;;;;4894269;29;21055;-34
2022/09/03 11:15:31;;;;;;;1.45;0.90;;;18.50;50.60;;;;;;4894975;29;20692;-36
2022/09/03 11:18:09;;;;;;;2.95;1.27;;;18.40;50.50;;;;;;4893856;29;20228;-35
2022/09/03 11:20:41;;;;;;;2.90;1.00;;;18.40;50.60;;;;;;4894329;29;20201;-33
2022/09/03 11:23:14;;;;;;;2.83;1.10;;;18.40;50.60;;;;;;4893979;29;20233;-34
2022/09/03 11:25:48;;;;;;;2.53;0.93;;;18.40;50.60;;;;;;4894473;29;20335;-34
2022/09/03 11:28:30;;;;;;;2.03;1.02;;;18.40;50.60;;;;;;4894208;29;20200;-34
2022/09/03 11:31:24;;;;;;;3.25;1.52;;;18.40;50.60;;;;;;4894256;29;20239;-34
2022/09/03 11:34:00;;;;;;;2.55;1.20;;;18.30;50.60;;;;;;4898048;29;20197;-34
2022/09/03 11:36:34;;;;;;;2.35;1.00;;;18.30;50.60;;;;;;4897476;29;20600;-33
2022/09/03 11:39:19;;;;;;;3.08;1.08;;;18.30;50.70;;;;;;4897716;29;20578;-34
2022/09/03 11:42:05;;;;;;;3.95;1.00;;;18.30;50.70;;;;;;4896794;29;20215;-34
2022/09/03 11:44:43;;;;;;;2.35;0.90;;;18.30;50.70;;;;;;4897165;29;20693;-38
2022/09/03 11:47:18;;;;;;;2.65;1.10;;;18.30;50.70;;;;;;4897282;29;20215;-39
2022/09/03 11:49:51;;;;;;;2.70;1.10;;;18.30;50.80;;;;;;4897704;29;20200;-42
2022/09/03 11:52:32;;;;;;;3.90;1.60;;;18.30;50.70;;;;;;4896483;29;20229;-35
2022/09/03 11:55:03;;;;;;;1.58;1.13;;;18.30;50.80;;;;;;4896156;29;20224;-41
2022/09/03 11:57:34;;;;;;;3.20;1.20;;;18.30;50.80;;;;;;4896947;29;20217;-41
2022/09/03 12:00:17;;;;;;;1.90;1.02;;;18.20;51.30;;;;;;4897051;29;20276;-42
2022/09/03 12:02:50;;;;;;;2.58;1.02;;;18.20;50.80;;;;;;4897196;29;20248;-33
2022/09/03 12:05:29;;;;;;;2.40;1.20;;;18.20;50.90;;;;;;4890343;29;20256;-40
2022/09/03 12:08:26;;;;;;;1.75;1.00;;;18.20;50.90;;;;;;4909927;29;20211;-34
2022/09/03 12:11:08;;;;;;;2.13;0.88;;;18.20;50.90;;;;;;4896598;29;20225;-33
2022/09/03 12:13:52;;;;;;;1.30;0.98;;;18.10;50.90;;;;;;4897161;29;20204;-33
2022/09/03 12:16:38;;;;;;;3.05;1.00;;;18.10;50.90;;;;;;4877515;29;20584;-37
2022/09/03 12:19:18;;;;;;;2.70;1.17;;;18.10;50.90;;;;;;4880573;29;20197;-41
2022/09/03 12:21:51;;;;;;;1.77;1.08;;;18.10;50.90;;;;;;4896347;29;20209;-34
2022/09/03 12:24:22;;;;;;;2.67;1.10;;;18.10;50.90;;;;;;4897027;29;20251;-33
2022/09/03 12:26:54;;;;;;;2.20;1.00;;;18.10;50.90;;;;;;4895939;29;20209;-34
2022/09/03 12:29:27;;;;;;;2.05;0.90;;;18.10;51.00;;;;;;4895527;29;20207;-34
2022/09/03 12:32:09;;;;;;;2.65;1.10;;;18.10;51.00;;;;;;4894926;29;20729;-38
2022/09/03 12:34:40;;;;;;;4.68;1.40;;;18.00;51.00;;;;;;4895061;29;20225;-34
2022/09/03 12:37:22;;;;;;;1.65;0.80;;;18.00;51.00;;;;;;4894930;29;20205;-34
2022/09/03 12:39:57;;;;;;;2.15;1.10;;;18.00;51.10;;;;;;4894982;29;20272;-35
2022/09/03 12:42:30;;;;;;;2.17;1.20;;;18.00;51.10;;;;;;4894762;29;20201;-34
2022/09/03 12:45:11;;;;;;;1.80;0.93;;;18.00;51.10;;;;;;4895173;29;20229;-34
2022/09/03 12:47:45;;;;;;;2.50;1.40;;;18.00;51.10;;;;;;4894923;29;20673;-34
2022/09/03 12:50:17;;;;;;;1.40;0.90;;;18.00;51.10;;;;;;4894972;29;20212;-33
2022/09/03 12:52:50;;;;;;;1.83;0.90;;;18.00;51.10;;;;;;4894706;29;20575;-34
2022/09/03 12:55:40;;;;;;;2.33;0.90;;;18.00;51.10;;;;;;4894828;29;20232;-39
2022/09/03 12:58:15;;;;;;;1.38;0.82;;;18.00;51.10;;;;;;4895070;29;20197;-35
2022/09/03 13:00:52;;;;;;;2.08;0.90;;;17.90;51.10;;;;;;4897360;29;20205;-34
2022/09/03 13:03:31;;;;;;;2.00;1.15;;;17.90;51.10;;;;;;4895035;29;20215;-33
2022/09/03 13:06:03;;;;;;;1.58;0.77;;;17.90;51.10;;;;;;4894377;29;20241;-34
2022/09/03 13:08:38;;;;;;;1.63;0.80;;;17.90;51.20;;;;;;4894761;29;20228;-33
2022/09/03 13:11:10;;;;;;;1.98;1.05;;;17.80;51.20;;;;;;4907223;23;20599;-36
2022/09/03 13:13:41;;;;;;;2.85;0.90;;;17.80;51.20;;;;;;4895052;29;20568;-35
2022/09/03 13:16:46;;;;;;;0.85;0.57;;;17.80;51.20;;;;;;4894878;29;20233;-35
2022/09/03 13:19:28;;;;;;;2.20;0.80;;;17.80;51.20;;;;;;4890239;29;20256;-40
2022/09/03 13:22:08;;;;;;;1.48;0.85;;;17.80;51.20;;;;;;4893805;29;20205;-41
2022/09/03 13:25:04;;;;;;;1.63;0.80;;;17.80;51.10;;;;;;4894199;29;20231;-44
2022/09/03 13:27:40;;;;;;;2.67;1.05;;;17.80;51.20;;;;;;4894829;29;20209;-39
2022/09/03 13:30:15;;;;;;;2.35;1.15;;;17.80;51.20;;;;;;4894172;29;20207;-39
2022/09/03 13:32:59;;;;;;;1.88;0.70;;;17.70;51.20;;;;;;4893952;29;20323;-45
2022/09/03 13:35:38;;;;;;;1.77;1.00;;;17.70;51.20;;;;;;4894103;29;20221;-45
2022/09/03 13:38:17;;;;;;;1.13;0.90;;;17.70;51.20;;;;;;4893889;29;20617;-51
2022/09/03 13:40:53;;;;;;;1.08;0.68;;;17.70;51.30;;;;;;4894611;29;20209;-38
2022/09/03 13:43:33;;;;;;;1.55;0.82;;;17.70;51.30;;;;;;4894203;29;20692;-37